createdAt,value
2018-12-20T00:00:13.185Z,11.20
2018-12-20T00:02:40.603Z,8.33
2018-12-20T00:05:08.115Z,6.80
2018-12-20T00:07:35.578Z,8.80
2018-12-20T00:10:03.758Z,5.70
2018-12-20T00:12:31.259Z,8.00
2018-12-20T00:14:58.695Z,6.63
2018-12-20T00:17:31.851Z,7.53
2018-12-20T00:19:59.331Z,7.07
2018-12-20T00:22:26.659Z,9.23
2018-12-20T00:24:54.877Z,6.87
2018-12-20T00:27:22.357Z,6.87
2018-12-20T00:29:49.736Z,4.67
2018-12-20T00:32:17.195Z,6.97
2018-12-20T00:34:44.641Z,7.07
2018-12-20T00:37:12.347Z,8.20
2018-12-20T00:39:39.686Z,8.30
2018-12-20T00:42:07.020Z,9.73
2018-12-20T00:44:37.480Z,8.13
2018-12-20T00:47:02.029Z,12.47
2018-12-20T00:49:29.401Z,9.23
2018-12-20T00:51:56.936Z,10.07
2018-12-20T00:54:25.856Z,6.60
2018-12-20T00:56:54.056Z,7.87
2018-12-20T00:59:21.557Z,7.97
2018-12-20T01:01:49.032Z,10.67
2018-12-20T01:04:16.382Z,8.67
2018-12-20T01:06:43.843Z,9.77
2018-12-20T01:09:11.270Z,10.43
2018-12-20T01:11:38.796Z,7.43
2018-12-20T01:14:06.960Z,10.80
2018-12-20T01:16:34.342Z,9.73
2018-12-20T01:19:01.820Z,9.10
2018-12-20T01:21:29.262Z,10.80
2018-12-20T01:23:56.715Z,8.17
2018-12-20T01:26:24.167Z,13.33
2018-12-20T01:28:52.386Z,12.90
2018-12-20T01:31:19.866Z,13.93
2018-12-20T01:33:48.118Z,12.43
2018-12-20T01:36:16.138Z,10.70
2018-12-20T01:38:43.564Z,10.70
2018-12-20T01:41:11.034Z,12.73
2018-12-20T01:43:38.489Z,18.47
2018-12-20T01:46:05.943Z,11.47
2018-12-20T01:48:33.651Z,10.27
2018-12-20T01:51:01.583Z,9.70
2018-12-20T01:53:29.106Z,11.77
2018-12-20T01:55:56.520Z,9.80
2018-12-20T01:58:23.985Z,13.03
2018-12-20T02:00:51.663Z,11.60
2018-12-20T02:03:18.979Z,15.60
2018-12-20T02:05:47.342Z,13.27
2018-12-20T02:08:14.689Z,13.93
2018-12-20T02:10:42.093Z,11.17
2018-12-20T02:13:09.591Z,12.17
2018-12-20T02:15:37.754Z,9.53
2018-12-20T02:18:05.355Z,9.17
2018-12-20T02:20:32.643Z,11.50
2018-12-20T02:23:00.948Z,8.50
2018-12-20T02:25:28.526Z,11.47
2018-12-20T02:27:55.974Z,12.60
2018-12-20T02:30:23.379Z,10.33
2018-12-20T02:32:50.674Z,12.77
2018-12-20T02:35:18.882Z,8.07
2018-12-20T02:37:46.475Z,9.90
2018-12-20T02:40:14.804Z,7.93
2018-12-20T02:42:41.984Z,9.03
2018-12-20T02:45:11.015Z,7.03
2018-12-20T02:47:37.621Z,10.80
2018-12-20T02:50:05.064Z,8.57
2018-12-20T02:52:33.308Z,10.27
2018-12-20T02:55:00.973Z,13.30
2018-12-20T02:57:28.324Z,8.10
2018-12-20T02:59:56.376Z,14.57
2018-12-20T03:02:24.056Z,9.10
2018-12-20T03:04:51.274Z,9.40
2018-12-20T03:07:19.533Z,13.27
2018-12-20T03:09:46.961Z,11.17
2018-12-20T03:12:14.652Z,9.17
2018-12-20T03:14:41.844Z,14.67
2018-12-20T03:17:09.296Z,8.67
2018-12-20T03:19:37.010Z,11.30
2018-12-20T03:22:04.324Z,9.73
2018-12-20T03:24:31.725Z,9.17
2018-12-20T03:26:59.112Z,9.87
2018-12-20T03:29:26.745Z,10.20
2018-12-20T03:31:54.097Z,9.83
2018-12-20T03:34:21.569Z,7.97
2018-12-20T03:36:48.953Z,12.10
2018-12-20T03:39:17.288Z,12.50
2018-12-20T03:41:44.549Z,8.50
2018-12-20T03:44:12.811Z,10.47
2018-12-20T03:46:40.264Z,12.73
2018-12-20T03:49:07.764Z,8.70
2018-12-20T03:51:35.199Z,11.13
2018-12-20T03:54:02.628Z,11.90
2018-12-20T03:56:30.354Z,9.77
2018-12-20T03:58:57.823Z,10.27
2018-12-20T04:01:25.984Z,9.80
2018-12-20T04:03:53.412Z,11.97
2018-12-20T04:06:20.714Z,10.90
2018-12-20T04:08:49.189Z,10.17
2018-12-20T04:11:16.409Z,11.43
2018-12-20T04:13:43.838Z,9.70
2018-12-20T04:16:11.479Z,9.60
2018-12-20T04:18:38.784Z,11.10
2018-12-20T04:21:06.347Z,8.13
2018-12-20T04:23:33.887Z,11.83
2018-12-20T04:26:01.118Z,11.50
2018-12-20T04:28:29.481Z,10.40
2018-12-20T04:30:56.953Z,9.47
2018-12-20T04:33:24.407Z,9.67
2018-12-20T04:35:51.863Z,13.83
2018-12-20T04:38:19.267Z,10.97
2018-12-20T04:40:47.467Z,12.97
2018-12-20T04:43:14.810Z,13.23
2018-12-20T04:45:46.632Z,8.80
2018-12-20T04:48:09.683Z,7.63
2018-12-20T04:50:37.125Z,10.23
2018-12-20T04:53:04.555Z,10.33
2018-12-20T04:55:32.035Z,11.33
2018-12-20T04:57:59.736Z,12.20
2018-12-20T05:00:26.893Z,12.97
2018-12-20T05:02:55.294Z,10.10
2018-12-20T05:05:23.520Z,11.27
2018-12-20T05:07:50.754Z,8.13
2018-12-20T05:10:18.988Z,8.13
2018-12-20T05:12:46.709Z,11.47
2018-12-20T05:15:14.138Z,9.77
2018-12-20T05:17:41.326Z,8.90
2018-12-20T05:20:09.603Z,10.30
2018-12-20T05:22:36.982Z,8.47
2018-12-20T05:25:04.429Z,10.23
2018-12-20T05:27:33.838Z,8.23
2018-12-20T05:30:02.290Z,9.17
2018-12-20T05:32:29.527Z,11.70
2018-12-20T05:34:56.933Z,12.70
2018-12-20T05:37:25.157Z,14.07
2018-12-20T05:39:52.677Z,10.30
2018-12-20T05:42:20.298Z,11.27
2018-12-20T05:44:47.727Z,9.80
2018-12-20T05:47:15.713Z,13.93
2018-12-20T05:49:43.187Z,11.90
2018-12-20T05:52:10.595Z,8.93
2018-12-20T05:54:38.031Z,11.70
2018-12-20T05:57:05.487Z,9.53
2018-12-20T05:59:32.932Z,9.00
2018-12-20T06:02:00.460Z,12.80
2018-12-20T06:04:28.570Z,8.67
2018-12-20T06:06:56.151Z,11.77
2018-12-20T06:09:24.315Z,9.03
2018-12-20T06:11:51.865Z,9.97
2018-12-20T06:14:19.222Z,8.73
2018-12-20T06:16:46.756Z,10.13
2018-12-20T06:19:14.868Z,9.93
2018-12-20T06:21:42.528Z,8.80
2018-12-20T06:24:09.906Z,12.13
2018-12-20T06:26:37.363Z,11.40
2018-12-20T06:29:04.829Z,10.57
2018-12-20T06:31:32.312Z,10.33
2018-12-20T06:33:59.763Z,10.50
2018-12-20T06:36:27.214Z,11.80
2018-12-20T06:38:54.693Z,8.30
2018-12-20T06:41:22.168Z,9.90
2018-12-20T06:43:49.625Z,10.93
2018-12-20T06:46:21.181Z,9.50
2018-12-20T06:48:44.526Z,9.73
2018-12-20T06:51:12.029Z,7.93
2018-12-20T06:53:39.486Z,10.37
2018-12-20T06:56:06.922Z,11.07
2018-12-20T06:58:34.378Z,10.10
2018-12-20T07:01:01.820Z,9.17
2018-12-20T07:03:30.054Z,7.90
2018-12-20T07:05:57.486Z,12.00
2018-12-20T07:08:24.955Z,10.40
2018-12-20T07:10:52.413Z,11.10
2018-12-20T07:13:19.854Z,9.67
2018-12-20T07:15:47.319Z,9.80
2018-12-20T07:18:15.549Z,9.43
2018-12-20T07:20:42.981Z,12.23
2018-12-20T07:23:10.428Z,11.80
2018-12-20T07:25:37.866Z,9.67
2018-12-20T07:28:05.320Z,9.17
2018-12-20T07:30:32.765Z,9.67
2018-12-20T07:33:00.943Z,11.83
2018-12-20T07:35:28.376Z,8.50
2018-12-20T07:37:55.833Z,9.37
2018-12-20T07:40:23.303Z,7.50
2018-12-20T07:42:50.735Z,9.13
2018-12-20T07:45:18.941Z,10.57
2018-12-20T07:47:46.406Z,9.30
2018-12-20T07:50:13.869Z,8.77
2018-12-20T07:52:41.298Z,9.43
2018-12-20T07:55:09.515Z,8.43
2018-12-20T07:57:36.969Z,9.03
2018-12-20T08:00:04.420Z,11.47
2018-12-20T08:02:31.871Z,7.90
2018-12-20T08:05:00.080Z,10.23
2018-12-20T08:07:27.529Z,9.03
2018-12-20T08:09:54.993Z,8.63
2018-12-20T08:12:22.437Z,9.73
2018-12-20T08:14:50.641Z,8.10
2018-12-20T08:17:18.098Z,10.40
2018-12-20T08:19:45.551Z,8.50
2018-12-20T08:22:13.004Z,6.40
2018-12-20T08:24:41.222Z,7.33
2018-12-20T08:27:08.663Z,5.00
2018-12-20T08:29:36.093Z,6.00
2018-12-20T08:32:04.322Z,5.87
2018-12-20T08:34:31.765Z,6.53
2018-12-20T08:36:59.215Z,6.40
2018-12-20T08:39:27.430Z,5.53
2018-12-20T08:41:54.890Z,6.87
2018-12-20T08:44:22.308Z,5.77
2018-12-20T08:46:54.312Z,8.23
2018-12-20T08:49:17.984Z,6.90
2018-12-20T08:51:49.058Z,7.07
2018-12-20T08:54:12.869Z,5.87
2018-12-20T08:56:40.314Z,5.87
2018-12-20T08:59:07.778Z,6.37
2018-12-20T09:01:35.251Z,7.60
2018-12-20T09:04:02.656Z,7.43
2018-12-20T09:06:30.122Z,4.60
2018-12-20T09:08:57.584Z,8.80
2018-12-20T09:11:25.048Z,7.90
2018-12-20T09:13:52.542Z,7.00
2018-12-20T09:16:20.011Z,6.90
2018-12-20T09:18:48.411Z,7.00
2018-12-20T09:21:16.066Z,6.57
2018-12-20T09:23:43.496Z,5.37
2018-12-20T09:26:10.940Z,11.70
2018-12-20T09:28:38.399Z,4.43
2018-12-20T09:31:05.850Z,5.13
2018-12-20T09:33:34.082Z,5.23
2018-12-20T09:36:01.497Z,8.30
2018-12-20T09:38:28.941Z,7.27
2018-12-20T09:40:57.149Z,9.37
2018-12-20T09:43:25.044Z,7.83
2018-12-20T09:45:52.808Z,7.03
2018-12-20T09:48:20.259Z,5.57
2018-12-20T09:50:47.699Z,5.80
2018-12-20T09:53:15.904Z,6.43
2018-12-20T09:55:43.361Z,10.20
2018-12-20T09:58:10.815Z,6.73
2018-12-20T10:00:38.269Z,5.53
2018-12-20T10:03:06.487Z,3.87
2018-12-20T10:05:33.939Z,5.77
2018-12-20T10:08:01.395Z,5.70
2018-12-20T10:10:28.837Z,6.47
2018-12-20T10:12:57.063Z,4.10
2018-12-20T10:15:24.511Z,7.90
2018-12-20T10:17:51.962Z,5.33
2018-12-20T10:20:19.427Z,7.27
2018-12-20T10:22:46.896Z,6.47
2018-12-20T10:25:14.354Z,5.40
2018-12-20T10:27:41.815Z,5.50
2018-12-20T10:30:09.307Z,4.73
2018-12-20T10:32:36.726Z,7.73
2018-12-20T10:35:04.204Z,7.13
2018-12-20T10:37:31.656Z,4.67
2018-12-20T10:39:59.124Z,4.17
2018-12-20T10:42:26.576Z,5.50
2018-12-20T10:44:54.033Z,5.43
2018-12-20T10:47:28.772Z,4.13
2018-12-20T10:49:50.722Z,8.97
2018-12-20T10:52:19.417Z,9.90
2018-12-20T10:54:45.627Z,6.67
2018-12-20T10:57:13.849Z,9.90
2018-12-20T10:59:41.306Z,8.03
2018-12-20T11:02:14.467Z,5.50
2018-12-20T11:04:48.493Z,4.33
2018-12-20T11:07:21.647Z,5.93
2018-12-20T11:09:54.841Z,5.33
2018-12-20T11:12:26.131Z,3.80
2018-12-20T11:14:53.563Z,4.23
2018-12-20T11:17:21.780Z,5.20
2018-12-20T11:19:49.260Z,6.70
2018-12-20T11:24:55.251Z,3.60
2018-12-20T11:27:22.746Z,5.80
2018-12-20T11:29:50.196Z,4.63
2018-12-20T11:32:17.635Z,4.37
2018-12-20T11:34:45.095Z,2.70
2018-12-20T11:37:12.548Z,5.67
2018-12-20T11:39:40.006Z,3.57
2018-12-20T11:42:07.471Z,5.90
2018-12-20T11:44:35.693Z,5.67
2018-12-20T11:47:04.485Z,5.78
2018-12-20T11:49:31.939Z,5.47
2018-12-20T11:51:59.383Z,7.23
2018-12-20T11:54:26.843Z,3.93
2018-12-20T11:56:54.299Z,5.87
2018-12-20T11:59:21.763Z,4.70
2018-12-20T12:01:49.211Z,6.17
2018-12-20T12:04:16.679Z,5.23
2018-12-20T12:06:44.135Z,5.13
2018-12-20T12:09:11.608Z,5.10
2018-12-20T12:11:39.082Z,3.23
2018-12-20T12:14:06.539Z,4.30
2018-12-20T12:16:33.995Z,4.67
2018-12-20T12:19:01.453Z,8.50
2018-12-20T12:21:28.917Z,3.83
2018-12-20T12:23:56.379Z,4.87
2018-12-20T12:26:23.861Z,5.03
2018-12-20T12:28:51.315Z,3.63
2018-12-20T12:31:18.772Z,5.53
2018-12-20T12:33:46.239Z,3.43
2018-12-20T12:36:13.694Z,3.37
2018-12-20T12:38:41.136Z,7.63
2018-12-20T12:41:08.606Z,10.90
2018-12-20T12:43:36.055Z,5.07
2018-12-20T12:46:03.593Z,3.00
2018-12-20T12:48:31.062Z,5.13
2018-12-20T12:50:58.520Z,5.97
2018-12-20T12:53:26.834Z,5.10
2018-12-20T12:55:54.268Z,7.13
2018-12-20T12:58:22.500Z,3.63
2018-12-20T13:00:49.959Z,4.13
2018-12-20T13:03:17.406Z,4.07
2018-12-20T13:05:44.855Z,7.97
2018-12-20T13:08:12.339Z,4.63
2018-12-20T13:10:39.777Z,3.47
2018-12-20T13:13:07.237Z,3.30
2018-12-20T13:15:35.443Z,4.20
2018-12-20T13:18:09.849Z,3.43
2018-12-20T13:20:31.291Z,8.80
2018-12-20T13:22:58.732Z,3.37
2018-12-20T13:25:26.188Z,5.40
2018-12-20T13:27:54.418Z,3.90
2018-12-20T13:30:21.879Z,6.57
2018-12-20T13:32:49.433Z,3.00
2018-12-20T13:35:16.903Z,4.03
2018-12-20T13:37:45.117Z,4.63
2018-12-20T13:40:12.590Z,3.37
2018-12-20T13:42:40.840Z,4.83
2018-12-20T13:45:08.296Z,5.37
2018-12-20T13:47:35.748Z,6.93
2018-12-20T13:50:03.865Z,4.18
2018-12-20T13:52:32.102Z,5.63
2018-12-20T13:54:59.568Z,4.43
2018-12-20T13:57:27.039Z,6.73
2018-12-20T13:59:54.495Z,3.43
2018-12-20T14:02:22.719Z,6.30
2018-12-20T14:04:50.938Z,3.47
2018-12-20T14:07:18.409Z,6.03
2018-12-20T14:09:45.876Z,5.57
2018-12-20T14:12:13.338Z,4.70
2018-12-20T14:14:40.795Z,5.47
2018-12-20T14:17:08.225Z,6.40
2018-12-20T14:19:35.700Z,7.77
2018-12-20T14:22:03.751Z,4.53
2018-12-20T14:24:31.981Z,6.13
2018-12-20T14:26:59.422Z,3.80
2018-12-20T14:29:26.912Z,4.73
2018-12-20T14:31:54.367Z,5.73
2018-12-20T14:34:21.839Z,3.43
2018-12-20T14:36:49.303Z,5.57
2018-12-20T14:39:16.759Z,7.03
2018-12-20T14:41:44.218Z,5.83
2018-12-20T14:44:11.675Z,4.03
2018-12-20T14:46:39.135Z,4.03
2018-12-20T14:49:06.585Z,7.77
2018-12-20T14:51:34.041Z,7.33
2018-12-20T14:54:01.491Z,5.53
2018-12-20T14:56:29.714Z,3.47
2018-12-20T14:58:57.184Z,4.53
2018-12-20T15:01:24.719Z,8.80
2018-12-20T15:03:52.196Z,6.00
2018-12-20T15:06:19.632Z,8.37
2018-12-20T15:08:47.087Z,3.17
2018-12-20T15:11:14.543Z,4.27
2018-12-20T15:13:42.001Z,3.17
2018-12-20T15:16:10.237Z,4.23
2018-12-20T15:18:37.698Z,8.93
2018-12-20T15:21:05.145Z,6.83
2018-12-20T15:23:32.605Z,4.03
2018-12-20T15:26:00.077Z,5.53
2018-12-20T15:28:27.529Z,4.77
2018-12-20T15:30:54.998Z,5.32
2018-12-20T15:33:22.454Z,4.97
2018-12-20T15:35:49.923Z,8.10
2018-12-20T15:38:17.362Z,11.43
2018-12-20T15:40:44.817Z,4.33
2018-12-20T15:43:13.085Z,6.33
2018-12-20T15:45:40.537Z,7.00
2018-12-20T15:48:07.997Z,9.10
2018-12-20T15:50:35.458Z,5.83
2018-12-20T15:53:03.816Z,5.70
2018-12-20T15:55:31.259Z,7.77
2018-12-20T15:57:58.724Z,10.37
2018-12-20T16:00:26.187Z,5.30
2018-12-20T16:02:53.654Z,5.13
2018-12-20T16:05:21.115Z,9.80
2018-12-20T16:07:48.571Z,6.07
2018-12-20T16:10:16.026Z,5.67
2018-12-20T16:12:43.507Z,6.77
2018-12-20T16:15:10.958Z,8.53
2018-12-20T16:17:38.727Z,10.23
2018-12-20T16:20:06.197Z,4.33
2018-12-20T16:22:33.632Z,8.33
2018-12-20T16:25:01.971Z,5.67
2018-12-20T16:27:29.348Z,9.13
2018-12-20T16:29:56.789Z,5.63
2018-12-20T16:32:25.023Z,10.07
2018-12-20T16:34:53.235Z,8.37
2018-12-20T16:37:20.677Z,2.93
2018-12-20T16:39:48.139Z,5.63
2018-12-20T16:42:15.594Z,9.53
2018-12-20T16:44:43.053Z,7.13
2018-12-20T16:47:11.632Z,6.13
2018-12-20T16:49:39.844Z,7.90
2018-12-20T16:52:07.288Z,7.73
2018-12-20T16:54:34.731Z,5.60
2018-12-20T16:57:03.858Z,7.63
2018-12-20T16:59:31.311Z,3.60
2018-12-20T17:01:58.769Z,8.27
2018-12-20T17:04:27.007Z,3.73
2018-12-20T17:06:54.457Z,6.60
2018-12-20T17:09:22.708Z,4.90
2018-12-20T17:11:50.159Z,5.23
2018-12-20T17:14:18.374Z,6.27
2018-12-20T17:16:45.827Z,5.60
2018-12-20T17:19:13.277Z,6.20
2018-12-20T17:21:40.721Z,5.97
2018-12-20T17:24:08.954Z,6.47
2018-12-20T17:26:36.414Z,6.70
2018-12-20T17:29:04.698Z,6.80
2018-12-20T17:31:32.162Z,5.73
2018-12-20T17:34:01.737Z,3.67
2018-12-20T17:36:27.079Z,6.87
2018-12-20T17:38:54.591Z,6.20
2018-12-20T17:41:22.810Z,5.60
2018-12-20T17:43:50.273Z,7.50
2018-12-20T17:46:17.715Z,5.97
2018-12-20T17:48:45.203Z,8.90
2018-12-20T17:51:13.008Z,8.73
2018-12-20T17:53:40.471Z,5.67
2018-12-20T17:56:07.935Z,8.53
2018-12-20T17:58:35.387Z,6.63
2018-12-20T18:01:04.530Z,7.40
2018-12-20T18:03:31.986Z,9.20
2018-12-20T18:06:00.189Z,7.40
2018-12-20T18:08:27.642Z,10.80
2018-12-20T18:10:55.102Z,11.60
2018-12-20T18:13:23.316Z,8.87
2018-12-20T18:15:50.794Z,7.77
2018-12-20T18:18:18.354Z,10.13
2018-12-20T18:20:45.713Z,9.50
2018-12-20T18:23:13.175Z,8.27
2018-12-20T18:25:40.659Z,10.37
2018-12-20T18:28:08.107Z,5.90
2018-12-20T18:30:35.550Z,8.77
2018-12-20T18:33:03.673Z,9.57
2018-12-20T18:35:31.125Z,9.27
2018-12-20T18:37:59.309Z,10.60
2018-12-20T18:40:26.762Z,6.57
2018-12-20T18:42:54.220Z,6.27
2018-12-20T18:45:21.666Z,5.67
2018-12-20T18:47:49.115Z,8.57
2018-12-20T18:50:16.552Z,5.63
2018-12-20T18:52:44.004Z,6.33
2018-12-20T18:55:12.218Z,4.83
2018-12-20T18:57:39.653Z,5.50
2018-12-20T19:00:07.873Z,5.90
2018-12-20T19:02:35.329Z,5.33
2018-12-20T19:05:03.521Z,5.97
2018-12-20T19:07:31.738Z,5.00
2018-12-20T19:09:59.963Z,7.17
2018-12-20T19:12:27.378Z,7.97
2018-12-20T19:14:55.595Z,7.63
2018-12-20T19:17:23.038Z,9.07
2018-12-20T19:19:56.210Z,6.53
2018-12-20T19:22:18.711Z,11.47
2018-12-20T19:24:46.162Z,9.33
2018-12-20T19:27:13.599Z,5.97
2018-12-20T19:29:41.817Z,12.90
2018-12-20T19:32:09.250Z,8.80
2018-12-20T19:34:36.698Z,9.43
2018-12-20T19:37:05.808Z,10.07
2018-12-20T19:39:34.022Z,10.50
2018-12-20T19:42:01.490Z,7.97
2018-12-20T19:44:28.917Z,11.63
2018-12-20T19:46:57.113Z,8.17
2018-12-20T19:49:24.571Z,9.03
2018-12-20T19:51:52.034Z,12.63
2018-12-20T19:54:19.476Z,5.70
2018-12-20T19:56:47.679Z,6.90
2018-12-20T19:59:15.124Z,9.53
2018-12-20T20:01:43.339Z,6.77
2018-12-20T20:04:10.775Z,11.00
2018-12-20T20:06:38.223Z,4.83
2018-12-20T20:09:06.440Z,12.37
2018-12-20T20:11:33.890Z,12.83
2018-12-20T20:14:01.334Z,8.03
2018-12-20T20:16:29.543Z,7.77
2018-12-20T20:18:56.995Z,10.53
2018-12-20T20:21:24.445Z,9.63
2018-12-20T20:23:51.874Z,8.10
2018-12-20T20:26:19.321Z,5.20
2018-12-20T20:28:46.788Z,9.60
2018-12-20T20:31:14.214Z,5.97
2018-12-20T20:33:41.666Z,7.03
2018-12-20T20:36:09.106Z,7.50
2018-12-20T20:38:37.328Z,6.37
2018-12-20T20:41:04.774Z,4.73
2018-12-20T20:43:32.226Z,5.47
2018-12-20T20:45:59.678Z,7.20
2018-12-20T20:48:27.878Z,4.87
2018-12-20T20:50:55.326Z,7.83
2018-12-20T20:53:22.782Z,5.87
2018-12-20T20:55:50.998Z,5.87
2018-12-20T20:58:18.432Z,5.40
2018-12-20T21:00:45.860Z,8.40
2018-12-20T21:03:13.317Z,7.60
2018-12-20T21:05:40.752Z,3.60
2018-12-20T21:08:08.197Z,5.13
2018-12-20T21:10:35.644Z,5.70
2018-12-20T21:13:03.462Z,5.80
2018-12-20T21:15:33.741Z,6.50
2018-12-20T21:18:01.958Z,8.00
2018-12-20T21:20:30.740Z,5.13
2018-12-20T21:22:56.882Z,4.37
2018-12-20T21:25:24.332Z,4.83
2018-12-20T21:27:51.786Z,5.37
2018-12-20T21:30:19.246Z,2.70
2018-12-20T21:32:46.664Z,2.17
2018-12-20T21:35:14.107Z,4.90
2018-12-20T21:37:41.546Z,3.33
2018-12-20T21:40:08.994Z,4.13
2018-12-20T21:42:36.431Z,7.90
2018-12-20T21:45:03.974Z,2.75
2018-12-20T21:47:31.410Z,6.43
2018-12-20T21:49:58.855Z,6.73
2018-12-20T21:52:26.293Z,5.80
2018-12-20T21:54:53.730Z,3.27
2018-12-20T21:57:21.636Z,3.83
2018-12-20T21:59:48.621Z,3.10
2018-12-20T22:02:16.066Z,5.43
2018-12-20T22:04:43.596Z,7.73
2018-12-20T22:07:11.803Z,3.07
2018-12-20T22:09:39.251Z,2.10
2018-12-20T22:12:06.698Z,5.23
2018-12-20T22:14:34.895Z,5.63
2018-12-20T22:17:02.325Z,4.20
2018-12-20T22:19:29.762Z,6.10
2018-12-20T22:21:57.307Z,4.67
2018-12-20T22:24:24.775Z,3.23
2018-12-20T22:26:52.195Z,7.50
2018-12-20T22:29:20.420Z,4.87
2018-12-20T22:31:47.859Z,3.43
2018-12-20T22:34:15.301Z,5.17
2018-12-20T22:36:43.518Z,8.50
2018-12-20T22:39:10.957Z,6.83
2018-12-20T22:41:38.413Z,6.33
2018-12-20T22:44:06.611Z,8.37
2018-12-20T22:46:34.068Z,9.70
2018-12-20T22:49:01.523Z,6.13
2018-12-20T22:51:29.725Z,6.63
2018-12-20T22:53:57.145Z,5.93
2018-12-20T22:56:25.357Z,8.25
2018-12-20T22:58:52.816Z,4.13
2018-12-20T23:01:20.251Z,7.80
2018-12-20T23:03:48.511Z,5.60
2018-12-20T23:06:15.938Z,4.72
2018-12-20T23:08:43.383Z,5.97
2018-12-20T23:11:10.853Z,4.57
2018-12-20T23:13:38.283Z,4.23
2018-12-20T23:16:06.504Z,5.37
2018-12-20T23:18:33.957Z,6.80
2018-12-20T23:21:05.074Z,5.23
2018-12-20T23:23:29.584Z,8.70
2018-12-20T23:25:57.803Z,8.07
2018-12-20T23:28:25.254Z,5.50
2018-12-20T23:30:52.705Z,5.40
2018-12-20T23:33:20.138Z,6.00
2018-12-20T23:35:48.359Z,5.33
2018-12-20T23:38:15.809Z,8.93
2018-12-20T23:40:43.266Z,7.43
2018-12-20T23:43:10.705Z,5.40
2018-12-20T23:45:38.916Z,6.83
2018-12-20T23:48:06.343Z,3.80
2018-12-20T23:50:35.421Z,6.73
2018-12-20T23:53:04.529Z,4.70
2018-12-20T23:55:31.977Z,7.50
2018-12-20T23:57:59.426Z,6.77
